Time;durP1;ratioP1;P1;durP2;ratioP2;P2;SDS_P1;SDS_P2;PMS_P1;PMS_P2;Temp;Humidity;BMP_temperature;BMP_pressure;BME280_temperature;BME280_humidity;BME280_pressure;Samples;Min_cycle;Max_cycle;Signal;HPM_P1;HPM_P2
2021/12/02 00:00:18;;;;;;;0.00;0.00;;;3.90;99.90;;;;;;4940651;28;20465;-68
2021/12/02 00:02:44;;;;;;;0.00;0.00;;;3.90;99.90;;;;;;4943642;28;20050;-68
2021/12/02 00:05:10;;;;;;;0.00;0.00;;;3.90;99.90;;;;;;4958432;28;20046;-68
2021/12/02 00:07:35;;;;;;;0.00;0.00;;;3.90;99.90;;;;;;4959254;28;20424;-67
2021/12/02 00:10:01;;;;;;;0.00;0.00;;;3.80;99.90;;;;;;4958652;28;20121;-68
2021/12/02 00:12:27;;;;;;;0.00;0.00;;;3.80;99.90;;;;;;4959409;28;20046;-67
2021/12/02 00:14:53;;;;;;;0.00;0.00;;;3.80;99.90;;;;;;4958906;28;20061;-68
2021/12/02 00:17:24;;;;;;;0.00;0.00;;;4.00;99.90;;;;;;4959271;28;20050;-68
2021/12/02 00:23:02;;;;;;;0.00;0.00;;;3.90;99.90;;;;;;4958901;28;20449;-68
2021/12/02 00:25:28;;;;;;;0.00;0.00;;;3.90;99.90;;;;;;4957164;28;20055;-68
2021/12/02 00:27:55;;;;;;;0.00;0.00;;;3.90;99.90;;;;;;4957717;28;20121;-68
2021/12/02 00:30:21;;;;;;;0.00;0.00;;;4.00;99.90;;;;;;4959835;28;20047;-67
2021/12/02 00:32:47;;;;;;;0.00;0.00;;;3.90;99.90;;;;;;4959882;28;20082;-68
2021/12/02 00:35:16;;;;;;;0.00;0.00;;;4.00;99.90;;;;;;4961180;28;20047;-68
2021/12/02 00:37:43;;;;;;;0.00;0.00;;;3.90;99.90;;;;;;4962573;28;20049;-68
2021/12/02 00:40:09;;;;;;;0.00;0.00;;;3.80;99.90;;;;;;4962269;28;20145;-67
2021/12/02 00:42:35;;;;;;;0.00;0.00;;;3.80;99.90;;;;;;4961980;28;20166;-68
2021/12/02 00:45:03;;;;;;;0.00;0.00;;;3.80;99.90;;;;;;4945206;28;20054;-68
2021/12/02 00:47:28;;;;;;;0.00;0.00;;;3.80;99.90;;;;;;4963799;28;20058;-69
2021/12/02 00:49:54;;;;;;;0.00;0.00;;;3.80;99.90;;;;;;4962986;28;20122;-68
2021/12/02 00:52:20;;;;;;;0.00;0.00;;;3.70;99.90;;;;;;4961364;28;20042;-68
2021/12/02 00:54:48;;;;;;;0.00;0.00;;;3.70;99.90;;;;;;4961732;28;20094;-68
2021/12/02 00:57:13;;;;;;;0.00;0.00;;;3.70;99.90;;;;;;4962764;28;20042;-68
2021/12/02 00:59:40;;;;;;;0.00;0.00;;;3.60;99.90;;;;;;4963065;28;20082;-68
2021/12/02 01:02:08;;;;;;;0.00;0.00;;;4.90;99.90;;;;;;4962153;28;20109;-67
2021/12/02 01:04:33;;;;;;;0.00;0.00;;;3.60;99.90;;;;;;4962524;28;20109;-68
2021/12/02 01:06:59;;;;;;;0.00;0.00;;;3.60;99.90;;;;;;4961409;28;20050;-68
2021/12/02 01:09:25;;;;;;;0.00;0.00;;;3.60;99.90;;;;;;4962181;28;20034;-68
2021/12/02 01:11:54;;;;;;;0.00;0.00;;;3.60;99.90;;;;;;4961853;28;20429;-68
2021/12/02 01:14:20;;;;;;;0.00;0.00;;;3.60;99.90;;;;;;4962825;28;20494;-67
2021/12/02 01:16:45;;;;;;;0.00;0.00;;;3.60;99.90;;;;;;4962270;28;20051;-68
2021/12/02 01:19:11;;;;;;;0.00;0.00;;;3.60;99.90;;;;;;4961793;28;20066;-68
2021/12/02 01:21:40;;;;;;;0.00;0.00;;;3.60;99.90;;;;;;4961576;28;20051;-68
2021/12/02 01:24:09;;;;;;;0.00;0.00;;;3.60;99.90;;;;;;4960136;28;20046;-67
2021/12/02 01:26:35;;;;;;;0.00;0.00;;;3.70;99.90;;;;;;4962203;28;20642;-68
2021/12/02 01:29:02;;;;;;;0.00;0.00;;;4.80;99.90;;;;;;4962347;28;20142;-68
2021/12/02 01:31:34;;;;;;;0.00;0.00;;;3.50;99.90;;;;;;4963007;28;20047;-67
2021/12/02 01:34:02;;;;;;;0.00;0.00;;;3.40;99.90;;;;;;4962824;28;20057;-67
2021/12/02 01:36:33;;;;;;;0.00;0.00;;;3.30;99.90;;;;;;4961603;28;20046;-67
2021/12/02 01:38:59;;;;;;;0.00;0.00;;;3.20;99.90;;;;;;4960442;28;20055;-67
2021/12/02 01:41:25;;;;;;;0.00;0.00;;;3.20;99.90;;;;;;4960412;28;20101;-68
2021/12/02 01:43:53;;;;;;;0.00;0.00;;;3.20;99.90;;;;;;4959418;28;20125;-69
2021/12/02 01:46:24;;;;;;;0.00;0.00;;;3.20;99.90;;;;;;4943959;28;20081;-68
2021/12/02 01:49:04;;;;;;;0.00;0.00;;;3.50;99.90;;;;;;4962049;28;20062;-69
2021/12/02 01:51:31;;;;;;;0.00;0.00;;;3.20;99.90;;;;;;4960506;28;20125;-69
2021/12/02 01:54:07;;;;;;;0.00;0.00;;;3.20;99.90;;;;;;4961636;28;20058;-68
2021/12/02 01:56:41;;;;;;;0.00;0.00;;;3.20;99.90;;;;;;4944918;28;20423;-68
2021/12/02 01:59:18;;;;;;;0.00;0.00;;;3.20;99.90;;;;;;4961752;28;20449;-67
2021/12/02 02:01:45;;;;;;;0.00;0.00;;;3.20;99.90;;;;;;4959934;28;20091;-66
2021/12/02 02:04:12;;;;;;;0.00;0.00;;;3.20;99.90;;;;;;4953378;28;20507;-67
2021/12/02 02:06:55;;;;;;;0.00;0.00;;;3.20;99.90;;;;;;4954885;23;20039;-67
2021/12/02 02:09:21;;;;;;;0.00;0.00;;;3.20;99.90;;;;;;4927853;29;20634;-67
2021/12/02 02:11:46;;;;;;;0.00;0.00;;;3.20;99.90;;;;;;4936442;29;20058;-68
2021/12/02 02:14:12;;;;;;;0.00;0.00;;;3.20;99.90;;;;;;4941510;29;20063;-67
2021/12/02 02:16:39;;;;;;;0.00;0.00;;;3.30;99.90;;;;;;4941232;29;20050;-67
2021/12/02 02:19:05;;;;;;;0.00;0.00;;;3.20;99.90;;;;;;4942006;28;20789;-66
2021/12/02 02:21:35;;;;;;;0.00;0.00;;;3.20;99.90;;;;;;4941198;29;20051;-66
2021/12/02 02:24:01;;;;;;;0.00;0.00;;;3.30;99.90;;;;;;4940913;29;20090;-67
2021/12/02 02:26:31;;;;;;;0.00;0.00;;;3.30;99.90;;;;;;4940352;29;20043;-67
2021/12/02 02:28:58;;;;;;;0.00;0.00;;;3.30;99.90;;;;;;4940913;28;20055;-68
2021/12/02 02:31:25;;;;;;;0.00;0.00;;;3.30;99.90;;;;;;4941298;29;20122;-69
2021/12/02 02:33:53;;;;;;;0.00;0.00;;;3.30;99.90;;;;;;4942472;28;20059;-69
2021/12/02 02:36:21;;;;;;;0.00;0.00;;;3.30;99.90;;;;;;4942310;28;20043;-69
2021/12/02 02:38:57;;;;;;;0.00;0.00;;;4.00;99.90;;;;;;4940665;28;20387;-69
2021/12/02 02:41:29;;;;;;;0.00;0.00;;;3.40;99.90;;;;;;4941912;28;20125;-69
2021/12/02 02:43:58;;;;;;;0.00;0.00;;;3.40;99.90;;;;;;4941558;28;20047;-69
2021/12/02 02:46:26;;;;;;;0.00;0.00;;;3.40;99.90;;;;;;4940248;29;20074;-69
2021/12/02 02:48:52;;;;;;;0.00;0.00;;;3.40;99.90;;;;;;4940590;29;20481;-68
2021/12/02 02:51:18;;;;;;;0.00;0.00;;;3.30;99.90;;;;;;4940836;29;20082;-68
2021/12/02 02:53:48;;;;;;;0.00;0.00;;;3.30;99.90;;;;;;4939159;29;20078;-68
2021/12/02 02:56:17;;;;;;;0.00;0.00;;;3.80;99.90;;;;;;4940306;28;20055;-68
2021/12/02 03:04:24;;;;;;;0.00;0.00;;;3.00;99.90;;;;;;4943236;28;20051;-68
2021/12/02 03:09:37;;;;;;;0.00;0.00;;;2.90;99.90;;;;;;4922673;29;20102;-68
2021/12/02 03:12:40;;;;;;;0.00;0.00;;;2.80;99.90;;;;;;4922100;29;20046;-68
2021/12/02 03:17:27;;;;;;;0.00;0.00;;;2.60;99.90;;;;;;4921793;29;20495;-68
2021/12/02 03:19:52;;;;;;;0.00;0.00;;;2.60;99.90;;;;;;4921897;29;20052;-68
2021/12/02 03:22:18;;;;;;;0.00;0.00;;;2.50;99.90;;;;;;4921388;29;20043;-67
2021/12/02 03:24:44;;;;;;;0.00;0.00;;;2.40;99.90;;;;;;4921031;29;20677;-67
2021/12/02 03:27:10;;;;;;;0.00;0.00;;;2.40;99.90;;;;;;4921552;29;20063;-67
2021/12/02 03:29:36;;;;;;;0.00;0.00;;;2.40;99.90;;;;;;4922467;29;20047;-67
2021/12/02 03:32:02;;;;;;;0.00;0.00;;;2.30;99.90;;;;;;4922384;29;20578;-67
2021/12/02 03:34:28;;;;;;;0.00;0.00;;;2.20;99.90;;;;;;4920949;29;20086;-67
2021/12/02 03:36:53;;;;;;;0.00;0.00;;;2.00;99.90;;;;;;4919932;29;20047;-67
2021/12/02 03:39:19;;;;;;;0.00;0.00;;;1.90;99.90;;;;;;4921838;29;20051;-67
2021/12/02 03:41:45;;;;;;;0.00;0.00;;;1.90;99.90;;;;;;4919979;29;20050;-67
2021/12/02 03:44:12;;;;;;;0.00;0.00;;;1.80;99.90;;;;;;4921473;29;20106;-68
2021/12/02 03:46:39;;;;;;;0.00;0.00;;;1.80;99.90;;;;;;4922158;29;20072;-68
2021/12/02 03:49:05;;;;;;;0.00;0.00;;;1.80;99.90;;;;;;4921520;29;20139;-65
2021/12/02 03:51:31;;;;;;;0.00;0.00;;;1.80;99.90;;;;;;4920246;29;20134;-69
2021/12/02 03:53:57;;;;;;;0.00;0.00;;;1.80;99.90;;;;;;4921091;29;20071;-68
2021/12/02 03:56:23;;;;;;;0.00;0.00;;;1.80;99.90;;;;;;4921765;29;20139;-69
2021/12/02 03:58:50;;;;;;;0.00;0.00;;;1.80;99.90;;;;;;4921669;29;20317;-68
2021/12/02 04:01:18;;;;;;;0.00;0.00;;;1.90;99.90;;;;;;4920907;29;20163;-69
2021/12/02 04:03:44;;;;;;;0.00;0.00;;;1.90;99.90;;;;;;4932962;29;20036;-68
2021/12/02 04:06:11;;;;;;;0.00;0.00;;;1.90;99.90;;;;;;4940491;28;20047;-69
2021/12/02 04:08:45;;;;;;;0.00;0.00;;;2.00;99.90;;;;;;4938512;28;20114;-70
2021/12/02 04:11:35;;;;;;;;;;;2.00;99.90;;;;;;4939518;28;20050;-67
2021/12/02 04:16:30;;;;;;;0.00;0.00;;;2.20;99.90;;;;;;4955639;28;20051;-68
2021/12/02 04:18:56;;;;;;;0.00;0.00;;;2.20;99.90;;;;;;4939320;29;20066;-68
2021/12/02 04:21:22;;;;;;;0.00;0.00;;;2.30;99.90;;;;;;4940215;29;20051;-68
2021/12/02 04:23:48;;;;;;;0.00;0.00;;;2.40;99.90;;;;;;4938869;29;20050;-69
2021/12/02 04:26:14;;;;;;;0.00;0.00;;;2.40;99.90;;;;;;4940394;28;20055;-68
2021/12/02 04:28:39;;;;;;;0.00;0.00;;;2.50;99.90;;;;;;4940717;28;20051;-69
2021/12/02 04:31:05;;;;;;;0.00;0.00;;;2.60;99.90;;;;;;4939833;29;20051;-69
2021/12/02 04:33:31;;;;;;;0.00;0.00;;;2.60;99.90;;;;;;4940962;29;20058;-68
2021/12/02 04:35:58;;;;;;;0.00;0.00;;;2.60;99.90;;;;;;4940294;28;20129;-68
2021/12/02 04:38:24;;;;;;;0.00;0.00;;;2.70;99.90;;;;;;4939457;28;20486;-67
2021/12/02 04:40:49;;;;;;;0.00;0.00;;;2.70;99.90;;;;;;4938405;29;20047;-68
2021/12/02 04:43:15;;;;;;;0.00;0.00;;;2.70;99.90;;;;;;4940574;28;20075;-68
2021/12/02 04:45:41;;;;;;;0.00;0.00;;;2.60;99.90;;;;;;4940063;29;20047;-66
2021/12/02 04:48:07;;;;;;;0.00;0.00;;;2.50;99.90;;;;;;4938980;29;20058;-67
2021/12/02 04:50:33;;;;;;;0.00;0.00;;;2.30;99.90;;;;;;4938741;29;20055;-66
2021/12/02 04:52:59;;;;;;;0.00;0.00;;;2.10;99.90;;;;;;4939793;28;20055;-67
2021/12/02 04:55:24;;;;;;;0.00;0.00;;;2.00;99.90;;;;;;4939013;28;20070;-66
2021/12/02 04:57:50;;;;;;;0.00;0.00;;;1.80;99.90;;;;;;4923083;29;20046;-67
2021/12/02 05:00:17;;;;;;;0.00;0.00;;;1.60;99.90;;;;;;4938814;28;20150;-66
2021/12/02 05:02:44;;;;;;;0.00;0.00;;;1.40;99.90;;;;;;4939482;28;20042;-67
2021/12/02 05:05:10;;;;;;;0.00;0.00;;;1.30;99.90;;;;;;4940626;28;20051;-65
2021/12/02 05:07:36;;;;;;;0.00;0.00;;;1.20;99.90;;;;;;4937068;28;20063;-66
2021/12/02 05:10:06;;;;;;;0.00;0.00;;;1.20;99.90;;;;;;4940628;28;20054;-67
2021/12/02 05:12:32;;;;;;;0.00;0.00;;;1.20;99.90;;;;;;4939782;29;20486;-66
2021/12/02 05:14:58;;;;;;;0.00;0.00;;;1.10;99.90;;;;;;4940904;28;20110;-66
2021/12/02 05:17:24;;;;;;;0.00;0.00;;;1.10;99.90;;;;;;4937879;29;20111;-65
2021/12/02 05:19:49;;;;;;;0.00;0.00;;;1.10;99.90;;;;;;4942543;28;20036;-67
2021/12/02 05:22:16;;;;;;;0.00;0.00;;;1.00;99.90;;;;;;4943062;29;20138;-67
2021/12/02 05:24:42;;;;;;;0.00;0.00;;;1.00;99.90;;;;;;4943172;28;20104;-67
2021/12/02 05:27:07;;;;;;;0.00;0.00;;;1.00;99.90;;;;;;4942614;29;20870;-67
2021/12/02 05:29:33;;;;;;;0.00;0.00;;;1.00;99.90;;;;;;4943500;28;20126;-66
2021/12/02 05:31:59;;;;;;;0.00;0.00;;;1.00;99.90;;;;;;4943485;29;20046;-66
2021/12/02 05:34:25;;;;;;;0.00;0.00;;;1.00;99.90;;;;;;4940725;29;20058;-65
2021/12/02 05:36:51;;;;;;;0.00;0.00;;;0.90;99.90;;;;;;4941281;29;20379;-68
2021/12/02 05:39:17;;;;;;;0.00;0.00;;;-0.10;99.90;;;;;;4941678;29;20086;-68
2021/12/02 05:41:43;;;;;;;0.00;0.00;;;0.80;99.90;;;;;;4942666;28;20078;-67
2021/12/02 05:44:09;;;;;;;0.00;0.00;;;0.80;99.90;;;;;;4924899;29;20049;-65
2021/12/02 05:46:34;;;;;;;0.00;0.00;;;0.80;99.90;;;;;;4942838;29;20055;-65
2021/12/02 05:49:00;;;;;;;0.00;0.00;;;0.80;99.90;;;;;;4942833;29;20650;-66
2021/12/02 05:51:26;;;;;;;0.00;0.00;;;0.80;99.90;;;;;;4940984;29;20031;-64
2021/12/02 05:53:52;;;;;;;0.00;0.00;;;0.80;99.90;;;;;;4940652;29;20142;-65
2021/12/02 05:56:17;;;;;;;0.00;0.00;;;0.80;99.90;;;;;;4942483;29;20070;-65
2021/12/02 05:58:43;;;;;;;0.00;0.00;;;0.80;99.90;;;;;;4941488;28;20043;-64
2021/12/02 06:01:09;;;;;;;0.00;0.00;;;0.80;99.90;;;;;;4941692;28;20105;-65
2021/12/02 06:03:36;;;;;;;0.00;0.00;;;0.80;99.90;;;;;;4941467;28;20123;-65
2021/12/02 06:06:03;;;;;;;0.00;0.00;;;0.90;99.90;;;;;;4943050;28;20110;-66
2021/12/02 06:08:29;;;;;;;0.00;0.00;;;0.90;99.90;;;;;;4942469;28;20058;-65
2021/12/02 06:10:55;;;;;;;0.00;0.00;;;0.90;99.90;;;;;;4940401;29;20564;-67
2021/12/02 06:13:21;;;;;;;0.00;0.00;;;0.90;99.90;;;;;;4941175;29;20055;-66
2021/12/02 06:15:46;;;;;;;0.00;0.00;;;0.80;99.90;;;;;;4940997;29;20113;-64
2021/12/02 06:18:13;;;;;;;0.00;0.00;;;0.80;99.90;;;;;;4942620;28;20139;-65
2021/12/02 06:20:39;;;;;;;0.00;0.00;;;0.70;99.90;;;;;;4940411;29;20769;-66
2021/12/02 06:23:04;;;;;;;0.00;0.00;;;0.60;99.90;;;;;;4941464;29;20692;-65
2021/12/02 06:27:56;;;;;;;0.00;0.00;;;0.60;99.90;;;;;;4941609;29;20186;-64
2021/12/02 06:30:23;;;;;;;0.00;0.00;;;0.60;99.90;;;;;;4939463;28;20040;-64
2021/12/02 06:32:49;;;;;;;0.00;0.00;;;0.60;99.90;;;;;;4942271;28;20117;-64
2021/12/02 06:35:15;;;;;;;0.00;0.00;;;0.50;99.90;;;;;;4941880;28;20047;-64
2021/12/02 06:37:41;;;;;;;0.00;0.00;;;0.50;99.90;;;;;;4940351;28;20047;-63
2021/12/02 06:40:09;;;;;;;0.00;0.00;;;0.50;99.90;;;;;;4942133;28;20035;-63
2021/12/02 06:42:35;;;;;;;0.00;0.00;;;0.50;99.90;;;;;;4940885;28;20444;-63
2021/12/02 06:45:01;;;;;;;0.00;0.00;;;0.50;99.90;;;;;;4942036;29;20098;-64
2021/12/02 06:47:31;;;;;;;0.00;0.00;;;0.50;99.90;;;;;;4941103;28;20098;-64
2021/12/02 06:50:00;;;;;;;0.00;0.00;;;0.60;99.90;;;;;;4942176;28;20109;-65
2021/12/02 06:52:27;;;;;;;0.00;0.00;;;0.50;99.90;;;;;;4941179;28;20090;-63
2021/12/02 06:54:53;;;;;;;0.00;0.00;;;0.60;99.90;;;;;;4940501;28;20344;-63
2021/12/02 06:57:19;;;;;;;0.00;0.00;;;0.60;99.90;;;;;;4941261;28;20086;-64
2021/12/02 06:59:45;;;;;;;0.00;0.00;;;0.70;99.90;;;;;;4941539;28;20051;-63
2021/12/02 07:02:11;;;;;;;0.00;0.00;;;0.70;99.90;;;;;;4941594;28;20438;-64
2021/12/02 07:04:36;;;;;;;0.00;0.00;;;0.70;99.90;;;;;;4939911;29;20395;-64
2021/12/02 07:07:02;;;;;;;0.00;0.00;;;0.80;99.90;;;;;;4939256;29;20067;-64
2021/12/02 07:09:28;;;;;;;0.00;0.00;;;0.80;99.90;;;;;;4940405;29;20054;-64
2021/12/02 07:11:54;;;;;;;0.00;0.00;;;0.80;99.90;;;;;;4940063;29;20149;-64
2021/12/02 07:14:21;;;;;;;0.00;0.00;;;0.80;99.90;;;;;;4940351;29;20042;-64
2021/12/02 07:16:47;;;;;;;0.00;0.00;;;0.80;99.90;;;;;;4940914;28;20130;-63
2021/12/02 07:19:12;;;;;;;0.00;0.00;;;0.80;99.90;;;;;;4939638;29;20126;-64
2021/12/02 07:21:40;;;;;;;0.00;0.00;;;2.40;99.90;;;;;;4939959;28;20509;-65
2021/12/02 07:24:07;;;;;;;0.00;0.00;;;0.80;99.90;;;;;;4941129;28;20047;-64
2021/12/02 07:26:34;;;;;;;0.00;0.00;;;0.70;99.90;;;;;;4939306;29;20081;-63
2021/12/02 07:29:01;;;;;;;0.00;0.00;;;0.70;99.90;;;;;;4941288;28;20042;-64
2021/12/02 07:31:30;;;;;;;0.00;0.00;;;0.70;99.90;;;;;;4940259;28;20086;-64
2021/12/02 07:33:57;;;;;;;0.00;0.00;;;0.70;99.90;;;;;;4941207;29;20051;-64
2021/12/02 07:36:23;;;;;;;0.00;0.00;;;0.60;99.90;;;;;;4940222;28;20078;-64
2021/12/02 07:38:49;;;;;;;0.00;0.00;;;0.60;99.90;;;;;;4939753;28;20078;-64
2021/12/02 07:41:15;;;;;;;0.00;0.00;;;1.90;99.90;;;;;;4940676;28;20089;-64
2021/12/02 07:43:41;;;;;;;0.00;0.00;;;0.60;99.90;;;;;;4940150;28;20043;-64
2021/12/02 07:46:08;;;;;;;0.00;0.00;;;0.50;99.90;;;;;;4940421;28;20486;-63
2021/12/02 07:48:35;;;;;;;0.00;0.00;;;0.50;99.90;;;;;;4940220;28;20054;-64
2021/12/02 07:51:05;;;;;;;0.00;0.00;;;2.10;99.90;;;;;;4941430;28;20443;-64
2021/12/02 07:53:32;;;;;;;0.00;0.00;;;0.80;99.90;;;;;;4941296;28;20079;-64
2021/12/02 07:56:03;;;;;;;0.00;0.00;;;0.50;99.90;;;;;;4939269;29;20086;-64
2021/12/02 07:58:30;;;;;;;0.00;0.00;;;0.50;99.90;;;;;;4940825;28;20114;-65
2021/12/02 08:01:00;;;;;;;0.00;0.00;;;0.50;99.90;;;;;;4940523;28;20675;-65
2021/12/02 08:03:26;;;;;;;0.00;0.00;;;0.50;99.90;;;;;;4939714;28;20159;-64
2021/12/02 08:05:53;;;;;;;0.00;0.00;;;0.50;99.90;;;;;;4940494;28;20719;-64
2021/12/02 08:08:19;;;;;;;0.00;0.00;;;0.50;99.90;;;;;;4939242;28;20058;-64
2021/12/02 08:10:45;;;;;;;0.00;0.00;;;0.40;99.90;;;;;;4940423;29;20046;-64
2021/12/02 08:13:13;;;;;;;0.00;0.00;;;0.50;99.90;;;;;;4939927;29;20062;-64
2021/12/02 08:15:40;;;;;;;0.00;0.00;;;0.50;99.90;;;;;;4940646;28;20036;-65
2021/12/02 08:18:05;;;;;;;0.00;0.00;;;0.40;99.90;;;;;;4940013;28;20097;-64
2021/12/02 08:20:31;;;;;;;0.00;0.00;;;0.50;99.90;;;;;;4939846;29;20070;-64
2021/12/02 08:22:58;;;;;;;0.00;0.00;;;0.50;99.90;;;;;;4938690;29;20046;-64
2021/12/02 08:25:26;;;;;;;0.00;0.00;;;0.50;99.90;;;;;;4940260;28;20130;-64
2021/12/02 08:27:53;;;;;;;0.00;0.00;;;0.50;99.90;;;;;;4939811;28;20122;-64
2021/12/02 08:30:22;;;;;;;0.00;0.00;;;0.50;99.90;;;;;;4938282;29;20693;-64
2021/12/02 08:32:48;;;;;;;0.00;0.00;;;0.50;99.90;;;;;;4940365;28;20094;-64
2021/12/02 08:35:14;;;;;;;0.00;0.00;;;0.60;99.90;;;;;;4940122;28;20039;-64
2021/12/02 08:37:45;;;;;;;0.00;0.00;;;0.60;99.90;;;;;;4939524;28;20062;-64
2021/12/02 08:40:17;;;;;;;0.00;0.00;;;0.70;99.90;;;;;;4938449;29;20047;-64
2021/12/02 08:42:44;;;;;;;0.00;0.00;;;0.80;99.90;;;;;;4940317;28;20043;-64
2021/12/02 08:45:10;;;;;;;0.00;0.00;;;0.80;99.90;;;;;;4939221;29;20039;-64
2021/12/02 08:47:43;;;;;;;0.00;0.00;;;1.00;99.90;;;;;;4939244;28;20414;-64
2021/12/02 08:50:10;;;;;;;0.00;0.00;;;2.30;99.90;;;;;;4940188;28;20051;-64
2021/12/02 08:52:36;;;;;;;0.00;0.00;;;1.20;99.90;;;;;;4939624;28;20230;-64
2021/12/02 08:55:02;;;;;;;0.00;0.00;;;1.50;99.90;;;;;;4942482;28;20446;-64
2021/12/02 08:57:27;;;;;;;0.00;0.00;;;1.50;99.90;;;;;;4934288;28;20043;-64
2021/12/02 08:59:53;;;;;;;0.00;0.00;;;1.70;99.90;;;;;;4933975;29;20039;-64
2021/12/02 09:02:19;;;;;;;0.00;0.00;;;1.90;99.90;;;;;;4932575;29;20300;-64
2021/12/02 09:04:45;;;;;;;0.00;0.00;;;2.00;99.90;;;;;;4939380;28;20044;-66
2021/12/02 09:07:11;;;;;;;0.00;0.00;;;2.10;99.90;;;;;;4931953;28;20055;-65
2021/12/02 09:09:37;;;;;;;0.00;0.00;;;2.20;99.90;;;;;;4940355;29;20055;-67
2021/12/02 09:12:04;;;;;;;0.00;0.00;;;2.20;99.90;;;;;;4943073;28;20051;-66
2021/12/02 09:14:30;;;;;;;0.00;0.00;;;2.20;99.90;;;;;;4941923;29;20050;-65
2021/12/02 09:16:55;;;;;;;0.00;0.00;;;2.30;99.90;;;;;;4943254;28;20046;-65
2021/12/02 09:19:21;;;;;;;0.00;0.00;;;2.30;99.90;;;;;;4943459;28;20042;-65
2021/12/02 09:21:47;;;;;;;0.00;0.00;;;2.50;99.90;;;;;;4941803;28;20058;-68
2021/12/02 09:24:18;;;;;;;0.00;0.00;;;2.50;99.90;;;;;;4943171;28;20051;-66
2021/12/02 09:26:45;;;;;;;0.00;0.00;;;2.60;99.90;;;;;;4938074;28;20066;-66
2021/12/02 09:29:10;;;;;;;0.00;0.00;;;2.80;99.90;;;;;;4934186;29;20058;-66
2021/12/02 09:31:36;;;;;;;0.00;0.00;;;0.10;99.90;;;;;;4933272;29;20051;-66
2021/12/02 09:34:02;;;;;;;0.00;0.00;;;3.10;99.90;;;;;;4947900;28;20124;-66
2021/12/02 09:36:27;;;;;;;0.00;0.00;;;3.00;99.90;;;;;;4932057;29;20087;-67
2021/12/02 09:38:53;;;;;;;0.00;0.00;;;3.00;99.90;;;;;;4930625;29;20039;-66
2021/12/02 09:41:19;;;;;;;0.00;0.00;;;2.90;99.90;;;;;;4923222;29;20044;-66
2021/12/02 09:43:45;;;;;;;0.00;0.00;;;3.00;99.90;;;;;;4922787;29;20071;-66
2021/12/02 09:46:11;;;;;;;0.00;0.00;;;2.90;99.90;;;;;;4923173;29;20398;-66
2021/12/02 09:48:37;;;;;;;0.00;0.00;;;2.90;99.90;;;;;;4930978;29;20059;-67
2021/12/02 09:51:07;;;;;;;0.00;0.00;;;3.20;99.90;;;;;;4934594;29;20042;-67
2021/12/02 09:53:55;;;;;;;0.00;0.00;;;3.00;99.90;;;;;;4943075;28;20186;-65
2021/12/02 09:56:29;;;;;;;0.00;0.00;;;3.00;99.90;;;;;;4940776;28;20130;-66
2021/12/02 09:59:01;;;;;;;0.00;0.00;;;2.90;99.90;;;;;;4942568;28;20514;-67
2021/12/02 10:01:37;;;;;;;0.00;0.00;;;2.90;99.90;;;;;;4942262;28;20411;-67
2021/12/02 10:04:04;;;;;;;0.00;0.00;;;2.80;99.90;;;;;;4938815;28;20052;-64
2021/12/02 10:06:32;;;;;;;0.00;0.00;;;2.10;99.90;;;;;;4931901;28;20058;-66
2021/12/02 10:09:10;;;;;;;0.00;0.00;;;2.70;99.90;;;;;;4925083;29;20130;-66
2021/12/02 10:11:59;;;;;;;0.00;0.00;;;2.60;99.90;;;;;;4922650;29;20439;-65
2021/12/02 10:14:39;;;;;;;0.00;0.00;;;2.50;99.90;;;;;;4934706;29;20067;-66
2021/12/02 10:17:12;;;;;;;0.00;0.00;;;2.50;99.90;;;;;;4922937;29;20036;-65
2021/12/02 10:23:26;;;;;;;0.00;0.00;;;2.30;99.90;;;;;;4922410;29;20087;-65
2021/12/02 10:25:56;;;;;;;0.00;0.00;;;2.40;99.90;;;;;;4885301;29;20060;-65
2021/12/02 10:28:23;;;;;;;0.00;0.00;;;2.40;99.90;;;;;;4915196;29;20059;-65
2021/12/02 10:30:54;;;;;;;0.00;0.00;;;2.50;99.90;;;;;;4921538;29;20170;-64
2021/12/02 10:33:39;;;;;;;0.00;0.00;;;2.50;99.90;;;;;;4941303;28;20898;-58
2021/12/02 10:36:21;;;;;;;0.00;0.00;;;3.60;99.90;;;;;;4959052;28;20069;-57
2021/12/02 10:38:47;;;;;;;0.00;0.00;;;3.90;99.90;;;;;;4922133;29;20440;-57
2021/12/02 10:41:17;;;;;;;0.00;0.00;;;4.40;99.90;;;;;;4939405;28;20099;-64
2021/12/02 10:44:14;;;;;;;0.00;0.00;;;4.40;99.90;;;;;;4942645;28;20050;-60
2021/12/02 10:46:57;;;;;;;0.00;0.00;;;4.50;99.90;;;;;;4958435;28;20191;-60
2021/12/02 10:49:24;;;;;;;0.00;0.00;;;4.80;99.90;;;;;;4956391;28;20047;-61
2021/12/02 10:51:53;;;;;;;0.00;0.00;;;5.10;99.90;;;;;;4959534;28;20047;-61
2021/12/02 10:54:32;;;;;;;0.00;0.00;;;5.20;99.90;;;;;;4959249;28;20057;-61
2021/12/02 10:57:05;;;;;;;0.00;0.00;;;5.40;99.90;;;;;;4960541;28;20039;-65
2021/12/02 10:59:33;;;;;;;0.00;0.00;;;5.30;99.90;;;;;;4959770;28;20042;-67
2021/12/02 11:02:05;;;;;;;0.00;0.00;;;5.00;99.90;;;;;;4959000;28;20459;-64
2021/12/02 11:04:36;;;;;;;0.00;0.00;;;5.20;99.90;;;;;;4941573;28;20047;-64
2021/12/02 11:07:02;;;;;;;0.00;0.00;;;4.40;99.90;;;;;;4938792;28;20058;-64
2021/12/02 11:09:30;;;;;;;0.00;0.00;;;4.20;99.90;;;;;;4940569;29;20470;-64
2021/12/02 11:12:10;;;;;;;0.00;0.00;;;4.00;99.90;;;;;;4940775;28;20627;-64
2021/12/02 11:14:40;;;;;;;0.00;0.00;;;3.90;99.90;;;;;;4952323;28;20062;-65
2021/12/02 11:17:15;;;;;;;0.00;0.00;;;3.70;99.90;;;;;;4957905;28;20057;-63
2021/12/02 11:19:46;;;;;;;0.00;0.00;;;3.50;99.90;;;;;;4959117;28;20460;-66
2021/12/02 11:22:16;;;;;;;0.00;0.00;;;3.30;99.90;;;;;;4957150;28;20047;-66
2021/12/02 11:24:43;;;;;;;0.00;0.00;;;3.10;99.90;;;;;;4958658;28;20062;-66
2021/12/02 11:27:12;;;;;;;0.00;0.00;;;3.50;99.90;;;;;;4942367;28;20051;-66
2021/12/02 11:29:51;;;;;;;0.00;0.00;;;3.30;99.90;;;;;;4939457;28;20055;-62
2021/12/02 11:32:26;;;;;;;0.00;0.00;;;3.10;99.90;;;;;;4938791;29;20052;-62
2021/12/02 11:35:00;;;;;;;0.00;0.00;;;2.80;99.90;;;;;;4940117;28;20054;-63
2021/12/02 11:37:27;;;;;;;0.00;0.00;;;3.00;99.90;;;;;;4939319;29;20051;-65
2021/12/02 11:39:58;;;;;;;0.00;0.00;;;2.30;99.90;;;;;;4940608;28;20054;-68
2021/12/02 11:42:25;;;;;;;0.00;0.00;;;2.20;99.90;;;;;;4939073;29;20059;-67
2021/12/02 11:44:51;;;;;;;0.00;0.00;;;2.30;99.90;;;;;;4937812;29;20093;-67
2021/12/02 11:47:16;;;;;;;0.00;0.00;;;2.40;99.90;;;;;;4939554;28;20530;-66
2021/12/02 11:49:42;;;;;;;0.00;0.00;;;2.40;99.90;;;;;;4954455;28;20133;-66
2021/12/02 11:52:09;;;;;;;0.00;0.00;;;2.30;99.90;;;;;;4958575;28;20438;-67
2021/12/02 11:54:36;;;;;;;0.00;0.00;;;2.40;99.90;;;;;;4925064;29;20058;-66
2021/12/02 11:57:03;;;;;;;0.00;0.00;;;2.40;99.90;;;;;;4940206;28;20398;-66
2021/12/02 11:59:29;;;;;;;0.00;0.00;;;2.40;99.90;;;;;;4940209;28;20047;-66
2021/12/02 12:01:56;;;;;;;0.00;0.00;;;1.50;99.90;;;;;;4939099;28;20054;-67
2021/12/02 12:04:22;;;;;;;0.00;0.00;;;2.40;99.90;;;;;;4939029;28;20043;-66
2021/12/02 12:06:53;;;;;;;0.00;0.00;;;2.50;99.90;;;;;;4938669;28;20058;-67
2021/12/02 12:09:23;;;;;;;0.00;0.00;;;2.60;99.90;;;;;;4939992;28;20085;-67
2021/12/02 12:11:51;;;;;;;0.00;0.00;;;2.60;99.90;;;;;;4936477;29;20602;-69
2021/12/02 12:14:31;;;;;;;0.00;0.00;;;2.50;99.90;;;;;;4937886;28;20055;-67
2021/12/02 12:17:15;;;;;;;0.00;0.00;;;2.40;99.90;;;;;;4950329;28;20111;-67
2021/12/02 12:19:44;;;;;;;0.00;0.00;;;2.40;99.90;;;;;;4937349;28;20054;-67
2021/12/02 12:22:13;;;;;;;0.00;0.00;;;2.90;99.90;;;;;;4938138;28;20051;-66
2021/12/02 12:24:42;;;;;;;0.00;0.00;;;1.90;99.90;;;;;;4938032;28;20050;-66
2021/12/02 12:27:12;;;;;;;0.00;0.00;;;2.30;99.90;;;;;;4955318;28;20138;-67
2021/12/02 12:29:38;;;;;;;0.00;0.00;;;1.80;99.90;;;;;;4961322;28;20130;-67
2021/12/02 12:32:12;;;;;;;0.00;0.00;;;1.80;99.90;;;;;;4956048;28;20375;-67
2021/12/02 12:37:32;;;;;;;0.00;0.00;;;1.90;99.90;;;;;;4942187;29;20047;-67
2021/12/02 12:40:18;;;;;;;0.00;0.00;;;1.90;99.90;;;;;;4941822;28;20110;-67
2021/12/02 12:42:46;;;;;;;0.00;0.00;;;2.00;99.90;;;;;;4941575;29;20047;-67
2021/12/02 12:45:28;;;;;;;0.00;0.00;;;2.00;99.90;;;;;;4942350;28;20047;-67
2021/12/02 12:47:58;;;;;;;0.00;0.00;;;1.90;99.90;;;;;;4941150;28;20142;-67
2021/12/02 12:50:40;;;;;;;0.00;0.00;;;2.00;99.90;;;;;;4939371;29;20058;-66
2021/12/02 12:53:07;;;;;;;0.00;0.00;;;2.00;99.90;;;;;;4942926;28;20482;-63
2021/12/02 12:55:37;;;;;;;0.00;0.00;;;2.00;99.90;;;;;;4942681;28;20047;-65
2021/12/02 12:58:09;;;;;;;0.00;0.00;;;2.00;99.90;;;;;;4940131;29;20058;-63
2021/12/02 13:00:45;;;;;;;0.00;0.00;;;2.00;99.90;;;;;;4941071;28;20051;-62
2021/12/02 13:03:17;;;;;;;0.00;0.00;;;2.00;99.90;;;;;;4941561;28;20581;-63
2021/12/02 13:05:54;;;;;;;0.00;0.00;;;2.00;99.90;;;;;;4932708;29;20142;-63
2021/12/02 13:08:31;;;;;;;0.00;0.00;;;2.00;99.90;;;;;;4954894;28;20073;-62
2021/12/02 13:11:00;;;;;;;0.00;0.00;;;2.00;99.90;;;;;;4959710;28;20387;-62
2021/12/02 13:13:31;;;;;;;0.00;0.00;;;2.70;99.90;;;;;;4961252;28;20050;-63
2021/12/02 13:16:16;;;;;;;0.00;0.00;;;2.20;99.90;;;;;;4961353;28;20039;-63
2021/12/02 13:18:54;;;;;;;0.00;0.00;;;2.30;99.90;;;;;;4961258;28;20055;-63
2021/12/02 13:21:32;;;;;;;0.00;0.00;;;2.30;99.90;;;;;;4960880;28;20290;-63
2021/12/02 13:24:04;;;;;;;0.00;0.00;;;2.30;99.90;;;;;;4962147;28;20058;-63
2021/12/02 13:26:58;;;;;;;0.00;0.00;;;2.30;99.90;;;;;;4949352;28;20043;-64
2021/12/02 13:29:29;;;;;;;0.00;0.00;;;2.40;99.90;;;;;;4940699;29;20157;-64